Time;durP1;ratioP1;P1;durP2;ratioP2;P2;SDS_P1;SDS_P2;PMS_P1;PMS_P2;Temp;Humidity;BMP_temperature;BMP_pressure;BME280_temperature;BME280_humidity;BME280_pressure;Samples;Min_cycle;Max_cycle;Signal;HPM_P1;HPM_P2
2021/03/31 00:00:37;;;;;;;16.67;11.15;;;;;;;9.97;37.60;102033.90;1751507;81;21529;-82
2021/03/31 00:03:12;;;;;;;15.95;11.28;;;;;;;9.97;37.74;102038.77;1751916;81;21150;-82
2021/03/31 00:05:40;;;;;;;15.53;11.50;;;;;;;9.94;37.60;102036.80;1752008;82;21137;-81
2021/03/31 00:08:08;;;;;;;14.90;11.15;;;;;;;9.88;37.66;102036.29;1753443;82;21180;-80
2021/03/31 00:10:48;;;;;;;16.07;11.05;;;;;;;9.85;37.64;102035.66;1752517;81;21181;-80
2021/03/31 00:13:18;;;;;;;21.73;12.18;;;;;;;9.85;37.70;102038.34;1755850;81;21114;-84
2021/03/31 00:15:45;;;;;;;16.57;11.53;;;;;;;9.81;37.56;102034.17;1752315;81;21157;-85
2021/03/31 00:18:16;;;;;;;12.20;8.45;;;;;;;9.77;37.55;102035.41;1751485;81;21200;-79
2021/03/31 00:20:45;;;;;;;15.53;10.98;;;;;;;9.76;37.52;102033.67;1766309;80;21593;-80
2021/03/31 00:23:14;;;;;;;15.60;11.55;;;;;;;9.74;37.47;102030.27;1743409;81;21088;-81
2021/03/31 00:25:41;;;;;;;16.75;11.70;;;;;;;9.74;37.65;102016.89;1756016;80;21633;-82
2021/03/31 00:28:10;;;;;;;21.27;12.95;;;;;;;9.77;37.68;102026.03;1752199;81;21139;-81
2021/03/31 00:30:38;;;;;;;16.50;13.13;;;;;;;9.72;37.67;102020.14;1752331;81;21179;-81
2021/03/31 00:33:06;;;;;;;17.40;12.73;;;;;;;9.69;37.65;102020.39;1777342;80;21133;-81
2021/03/31 00:35:33;;;;;;;18.75;12.78;;;;;;;9.65;37.63;102019.77;1746862;80;21163;-81
2021/03/31 00:38:00;;;;;;;;;;;;;;;9.62;37.78;102017.30;1749806;82;21151;-81
2021/03/31 00:40:41;;;;;;;16.37;11.48;;;;;;;9.62;37.84;102016.81;1747055;80;20225;-80
2021/03/31 00:43:10;;;;;;;14.13;10.55;;;;;;;9.60;37.81;102017.43;1746814;82;21121;-80
2021/03/31 00:45:39;;;;;;;22.32;14.45;;;;;;;9.56;37.81;102019.96;1771881;80;21600;-80
2021/03/31 00:48:15;;;;;;;22.65;15.00;;;;;;;9.52;37.88;102014.46;1778114;80;21573;-80
2021/03/31 00:50:56;;;;;;;19.87;13.25;;;;;;;9.54;38.06;102013.88;1778252;80;21117;-81
2021/03/31 00:53:36;;;;;;;38.53;19.00;;;;;;;9.55;37.99;102014.25;1762153;80;21190;-81
2021/03/31 00:56:05;;;;;;;117.93;39.33;;;;;;;9.54;38.21;102013.88;1746334;81;21084;-82
2021/03/31 00:58:32;;;;;;;120.80;38.75;;;;;;;9.55;38.05;102004.88;1722522;82;21076;-81
2021/03/31 01:01:00;;;;;;;107.15;36.55;;;;;;;9.54;38.14;102001.00;1747350;82;21163;-80
2021/03/31 01:03:27;;;;;;;76.67;31.33;;;;;;;9.56;38.01;101999.89;1747394;82;21187;-82
2021/03/31 01:05:55;;;;;;;;;;;;;;;9.55;37.89;102002.70;1753669;80;21095;-81
2021/03/31 01:08:23;;;;;;;45.78;22.55;;;;;;;9.52;38.22;101997.08;1778186;80;20489;-82
2021/03/31 01:10:54;;;;;;;36.45;17.70;;;;;;;9.48;38.22;101997.42;1752132;80;21101;-82
2021/03/31 01:13:48;;;;;;;27.40;16.07;;;;;;;9.47;38.10;101997.91;1778029;80;21174;-81
2021/03/31 01:16:31;;;;;;;27.02;16.93;;;;;;;9.48;38.15;101992.06;1778171;80;21189;-81
2021/03/31 01:19:41;;;;;;;30.80;17.57;;;;;;;9.47;38.26;101993.89;1755559;80;21187;-80
2021/03/31 01:23:00;;;;;;;25.40;16.35;;;;;;;9.51;38.07;101995.38;1756051;80;21157;-81
2021/03/31 01:25:41;;;;;;;105.35;32.58;;;;;;;9.46;38.24;101998.03;1778577;79;21047;-81
2021/03/31 01:28:23;;;;;;;186.82;50.98;;;;;;;9.44;38.11;101996.78;1770355;79;21209;-82
2021/03/31 01:31:43;;;;;;;151.00;50.43;;;;;;;9.44;38.20;102001.28;1889687;76;22655;-81
2021/03/31 01:34:32;;;;;;;96.72;39.33;;;;;;;9.37;38.35;101990.20;1845938;77;21676;-81
2021/03/31 01:37:01;;;;;;;56.92;28.52;;;;;;;9.40;38.33;101995.30;1849109;77;21137;-81
2021/03/31 01:39:28;;;;;;;49.77;23.15;;;;;;;9.42;38.13;101992.53;1836906;77;21109;-80
2021/03/31 01:41:58;;;;;;;;;;;;;;;9.35;38.25;101992.11;1762333;81;21150;-80
2021/03/31 01:44:25;;;;;;;39.00;18.98;;;;;;;9.35;38.27;101998.80;1761804;81;20236;-80
2021/03/31 01:46:57;;;;;;;35.58;18.20;;;;;;;9.38;38.18;101991.89;1784957;80;21592;-81
2021/03/31 01:49:26;;;;;;;32.23;18.32;;;;;;;9.39;38.28;101989.09;1829507;77;21158;-81
2021/03/31 01:52:03;;;;;;;33.55;18.15;;;;;;;9.35;38.27;101990.77;1790000;79;21194;-79
2021/03/31 01:54:31;;;;;;;35.55;19.98;;;;;;;9.35;38.34;101984.09;1779751;79;21069;-81
2021/03/31 01:56:58;;;;;;;34.83;19.00;;;;;;;9.35;38.45;101986.77;1771740;79;21143;-80
2021/03/31 01:59:25;;;;;;;30.05;17.82;;;;;;;9.35;38.28;101982.75;1714603;81;21154;-81
2021/03/31 02:01:54;;;;;;;29.63;18.20;;;;;;;9.35;38.28;101982.75;1738449;81;21186;-80
2021/03/31 02:04:22;;;;;;;22.73;14.00;;;;;;;9.34;38.26;101977.04;1757846;81;21125;-81
2021/03/31 02:06:51;;;;;;;28.20;15.88;;;;;;;9.18;38.43;101983.16;1758766;81;21165;-81
2021/03/31 02:09:19;;;;;;;30.60;17.15;;;;;;;9.22;38.29;101978.81;1725225;81;21158;-81
2021/03/31 02:11:48;;;;;;;27.13;17.62;;;;;;;9.18;38.47;101976.48;1757898;80;21077;-81
2021/03/31 02:14:19;;;;;;;26.65;17.17;;;;;;;9.15;38.53;101975.72;1758149;81;21105;-81
2021/03/31 02:16:49;;;;;;;24.18;16.10;;;;;;;9.17;38.78;101974.74;1757957;79;21082;-82
2021/03/31 02:19:19;;;;;;;30.35;18.82;;;;;;;9.19;38.58;101968.33;1725160;81;21082;-82
2021/03/31 02:21:48;;;;;;;39.48;18.80;;;;;;;9.21;38.58;101968.20;1787755;80;21137;-81
2021/03/31 02:24:18;;;;;;;22.22;13.22;;;;;;;9.24;38.73;101966.66;1789096;80;21158;-80
2021/03/31 02:26:48;;;;;;;34.08;18.85;;;;;;;9.24;38.58;101966.66;1755099;80;21167;-80
2021/03/31 02:29:17;;;;;;;52.33;18.80;;;;;;;9.02;38.77;101962.87;1775180;80;21257;-80
2021/03/31 02:31:45;;;;;;;75.90;20.97;;;;;;;9.11;38.94;101963.53;1773061;79;21550;-82
2021/03/31 02:34:15;;;;;;;79.92;22.52;;;;;;;9.14;38.96;101951.30;1783230;80;21142;-81
2021/03/31 02:36:42;;;;;;;40.70;20.12;;;;;;;9.18;38.81;101945.73;1759955;80;21149;-81
2021/03/31 02:39:11;;;;;;;43.05;20.70;;;;;;;9.15;38.83;101951.66;1738328;81;21206;-81
2021/03/31 02:41:44;;;;;;;91.80;21.23;;;;;;;9.13;38.79;101954.09;1761602;81;21183;-81
2021/03/31 02:44:12;;;;;;;37.35;21.02;;;;;;;9.08;38.71;101944.19;1728616;82;21205;-80
2021/03/31 02:46:40;;;;;;;39.10;19.98;;;;;;;9.00;38.73;101947.44;1752499;82;21079;-80
2021/03/31 02:49:12;;;;;;;32.93;20.10;;;;;;;8.97;39.00;101944.98;1752220;82;21525;-82
2021/03/31 02:51:42;;;;;;;35.25;21.35;;;;;;;8.99;38.92;101946.20;1752390;82;21168;-82
2021/03/31 02:54:10;;;;;;;30.50;17.17;;;;;;;8.98;38.95;101944.50;1762112;80;21080;-81
2021/03/31 02:56:40;;;;;;;30.68;19.35;;;;;;;8.95;38.83;101947.38;1762350;80;21064;-82
2021/03/31 02:59:07;;;;;;;30.15;17.80;;;;;;;8.94;39.09;101935.84;1784103;80;21506;-80
2021/03/31 03:01:35;;;;;;;33.53;19.70;;;;;;;8.98;38.99;101946.68;1760601;80;21131;-80
2021/03/31 03:04:03;;;;;;;34.25;20.05;;;;;;;8.98;38.94;101939.15;1784045;80;21187;-80
2021/03/31 03:06:31;;;;;;;34.08;20.10;;;;;;;8.99;39.01;101948.38;1761892;80;21186;-80
2021/03/31 03:08:58;;;;;;;32.75;18.25;;;;;;;8.95;38.79;101945.59;1783032;80;21495;-81
2021/03/31 03:11:26;;;;;;;33.45;19.12;;;;;;;8.88;38.91;101937.63;1762228;80;21064;-79
2021/03/31 03:13:55;;;;;;;28.27;17.80;;;;;;;8.83;38.92;101935.78;1784043;80;21183;-80
2021/03/31 03:16:22;;;;;;;30.08;18.73;;;;;;;8.79;38.98;101931.61;1760918;80;21199;-83
2021/03/31 03:18:50;;;;;;;31.42;18.60;;;;;;;8.73;39.17;101936.92;1782593;80;21159;-81
2021/03/31 03:21:19;;;;;;;29.82;18.20;;;;;;;8.72;39.21;101937.89;1760295;80;21153;-80
2021/03/31 03:23:46;;;;;;;30.05;18.15;;;;;;;8.71;39.15;101933.49;1754568;80;21236;-79
2021/03/31 03:26:15;;;;;;;29.72;17.87;;;;;;;8.72;39.15;101930.34;1759465;78;21146;-83
2021/03/31 03:28:45;;;;;;;35.03;17.87;;;;;;;8.73;39.18;101936.08;1721920;81;21192;-81
2021/03/31 03:31:13;;;;;;;109.50;34.27;;;;;;;8.72;39.25;101924.54;1762813;80;21188;-83
2021/03/31 03:33:40;;;;;;;97.35;35.30;;;;;;;8.71;39.30;101927.30;1761157;79;21233;-79
2021/03/31 03:36:12;;;;;;;81.70;33.23;;;;;;;8.74;39.27;101929.77;1771054;79;21166;-81
2021/03/31 03:38:39;;;;;;;43.35;23.32;;;;;;;8.77;39.35;101933.56;1773757;80;21478;-83
2021/03/31 03:41:08;;;;;;;37.58;22.58;;;;;;;8.82;39.64;101934.93;1779859;80;21592;-82
2021/03/31 03:43:38;;;;;;;40.95;22.05;;;;;;;8.95;39.73;101936.23;1787484;79;21042;-79
2021/03/31 03:46:09;;;;;;;37.55;22.98;;;;;;;9.11;39.61;101928.78;1768826;80;21177;-80
2021/03/31 03:48:37;;;;;;;45.23;22.65;;;;;;;9.26;39.33;101928.61;1753561;80;21195;-81
2021/03/31 03:51:08;;;;;;;46.63;23.45;;;;;;;9.40;39.12;101933.33;1782271;80;21203;-80
2021/03/31 03:53:36;;;;;;;81.22;37.60;;;;;;;9.52;38.94;101929.35;1782747;80;21175;-80
2021/03/31 03:56:11;;;;;;;228.80;90.38;;;;;;;9.62;38.81;101925.86;1780105;80;21810;-79
2021/03/31 03:58:39;;;;;;;670.10;342.18;;;;;;;9.71;38.56;101928.81;1765824;79;21663;-79
2021/03/31 04:01:06;;;;;;;616.55;351.80;;;;;;;9.79;38.37;101928.59;1753508;80;21225;-79
2021/03/31 04:03:36;;;;;;;301.98;172.30;;;;;;;9.81;38.28;101935.16;1763039;80;21692;-79
2021/03/31 04:06:05;;;;;;;214.35;125.35;;;;;;;9.79;38.23;101928.59;1754132;81;21178;-79
2021/03/31 04:08:33;;;;;;;109.55;63.15;;;;;;;9.80;38.24;101928.11;1771746;80;21197;-79
2021/03/31 04:11:01;;;;;;;98.58;63.50;;;;;;;9.82;38.17;101924.36;1762285;80;22231;-80
2021/03/31 04:13:30;;;;;;;102.12;66.33;;;;;;;9.84;38.12;101914.87;1759297;80;21727;-79
2021/03/31 04:16:07;;;;;;;89.10;51.73;;;;;;;9.87;38.13;101914.16;1766487;80;21201;-82
2021/03/31 04:18:36;;;;;;;64.95;40.88;;;;;;;9.93;38.18;101913.31;1782480;79;21184;-82
2021/03/31 04:21:05;;;;;;;57.75;34.58;;;;;;;10.02;38.11;101910.77;1777797;79;21198;-80
2021/03/31 04:23:34;;;;;;;57.00;34.10;;;;;;;10.09;38.08;101912.50;1775234;79;21202;-82
2021/03/31 04:26:03;;;;;;;57.93;32.75;;;;;;;10.16;38.03;101911.03;1794431;79;21708;-81
2021/03/31 04:28:30;;;;;;;47.60;29.37;;;;;;;10.23;38.09;101914.09;1790591;79;21437;-82
2021/03/31 04:30:58;;;;;;;49.83;27.35;;;;;;;10.28;38.12;101909.27;1744719;80;21208;-81
2021/03/31 04:33:26;;;;;;;45.20;27.93;;;;;;;10.34;38.01;101910.95;1778136;79;21187;-79
2021/03/31 04:35:53;;;;;;;;;;;;;;;10.39;37.87;101907.42;1784384;79;21652;-79
2021/03/31 04:38:22;;;;;;;53.70;27.65;;;;;;;10.43;37.73;101905.36;1796529;78;20295;-81
2021/03/31 04:40:59;;;;;;;66.28;37.08;;;;;;;10.44;37.71;101904.37;1784817;79;21674;-81
2021/03/31 04:43:31;;;;;;;57.95;33.67;;;;;;;10.41;37.64;101901.97;1763416;78;21404;-80
2021/03/31 04:45:59;;;;;;;52.58;32.70;;;;;;;10.35;37.76;101902.43;1766683;79;21107;-79
2021/03/31 04:48:27;;;;;;;55.52;32.80;;;;;;;10.32;37.84;101906.22;1798323;78;21137;-79
2021/03/31 04:50:56;;;;;;;62.88;33.55;;;;;;;10.30;37.92;101906.81;1790161;79;21103;-80
2021/03/31 04:53:23;;;;;;;61.88;33.05;;;;;;;10.31;37.96;101913.02;1795311;79;21118;-80
2021/03/31 04:55:51;;;;;;;55.85;34.30;;;;;;;10.28;38.20;101909.27;1766992;79;21104;-78
2021/03/31 04:58:20;;;;;;;65.90;34.50;;;;;;;10.28;38.26;101904.76;1779477;80;21202;-81
2021/03/31 05:00:47;;;;;;;57.85;32.73;;;;;;;10.34;38.21;101899.39;1768238;80;21177;-84
2021/03/31 05:03:17;;;;;;;65.62;32.90;;;;;;;10.44;38.18;101899.52;1770538;80;21206;-79
2021/03/31 05:05:44;;;;;;;56.68;31.10;;;;;;;10.52;38.14;101907.30;1768154;79;21173;-79
2021/03/31 05:08:12;;;;;;;57.10;30.02;;;;;;;10.60;38.04;101900.86;1766148;79;21210;-78
2021/03/31 05:10:39;;;;;;;48.52;28.50;;;;;;;10.69;38.08;101905.12;1768772;79;21185;-80
2021/03/31 05:13:08;;;;;;;51.98;27.73;;;;;;;10.77;38.09;101902.67;1774650;79;21098;-79
2021/03/31 05:15:36;;;;;;;70.42;31.62;;;;;;;10.84;37.85;101898.50;1765279;80;21637;-79
2021/03/31 05:18:05;;;;;;;71.57;33.92;;;;;;;10.87;37.76;101899.61;1729172;80;21200;-78
2021/03/31 05:20:34;;;;;;;62.90;32.00;;;;;;;10.87;37.46;101908.49;1766514;78;21157;-79
2021/03/31 05:23:02;;;;;;;63.58;31.90;;;;;;;10.82;37.19;101905.34;1771014;78;21134;-79
2021/03/31 05:25:30;;;;;;;65.10;30.12;;;;;;;10.82;37.29;101905.83;1769456;78;21122;-79
2021/03/31 05:27:58;;;;;;;44.30;22.52;;;;;;;10.88;37.21;101901.30;1769371;79;21219;-79
2021/03/31 05:30:27;;;;;;;32.55;17.23;;;;;;;10.93;37.19;101899.94;1748265;80;21241;-82
2021/03/31 05:32:55;;;;;;;31.57;14.95;;;;;;;10.98;37.09;101898.23;1762084;79;21229;-79
2021/03/31 05:35:22;;;;;;;;;;;;;;;10.97;36.94;101897.87;1766217;79;21411;-79
2021/03/31 05:37:50;;;;;;;20.72;14.45;;;;;;;10.89;37.17;101892.27;1813366;76;27029;-80
2021/03/31 05:40:19;;;;;;;23.20;15.10;;;;;;;10.83;37.40;101897.66;1832227;76;21087;-78
2021/03/31 05:42:47;;;;;;;19.35;12.60;;;;;;;10.77;36.90;101899.50;1832283;76;21551;-80
2021/03/31 05:45:17;;;;;;;20.95;12.58;;;;;;;10.68;36.87;101896.72;1805067;76;21130;-79
2021/03/31 05:47:45;;;;;;;19.27;13.50;;;;;;;10.59;36.71;101897.81;1837232;76;21136;-81
2021/03/31 05:50:14;;;;;;;23.38;13.00;;;;;;;10.52;36.93;101900.61;1829471;76;21130;-78
2021/03/31 05:52:45;;;;;;;23.98;13.28;;;;;;;10.51;37.19;101897.58;1832009;75;21587;-76
2021/03/31 05:55:15;;;;;;;16.87;11.90;;;;;;;10.53;37.26;101889.41;1834521;76;21117;-82
2021/03/31 05:57:44;;;;;;;24.37;13.65;;;;;;;10.58;37.23;101893.90;1764212;79;21116;-79
2021/03/31 06:00:19;;;;;;;19.48;13.30;;;;;;;10.61;37.24;101893.66;1760079;79;21169;-79
2021/03/31 06:02:47;;;;;;;21.73;13.30;;;;;;;10.64;37.45;101890.75;1779842;78;21125;-79
2021/03/31 06:05:17;;;;;;;19.90;13.30;;;;;;;10.72;37.41;101887.43;1777623;78;21154;-79
2021/03/31 06:07:47;;;;;;;18.37;12.60;;;;;;;10.77;37.38;101883.42;1773893;78;21113;-76
2021/03/31 06:10:22;;;;;;;19.05;12.43;;;;;;;10.83;37.30;101889.61;1778616;79;21141;-76
2021/03/31 06:13:02;;;;;;;23.40;12.78;;;;;;;10.87;37.48;101888.88;1762222;79;21142;-76
2021/03/31 06:15:41;;;;;;;22.32;12.33;;;;;;;10.88;37.43;101890.58;1773771;79;21099;-76
2021/03/31 06:18:14;;;;;;;20.30;13.58;;;;;;;10.92;37.52;101888.86;1766063;80;21085;-77
2021/03/31 06:26:32;;;;;;;22.98;12.60;;;;;;;11.11;37.56;101892.72;1767475;78;21831;-80
2021/03/31 06:29:08;;;;;;;17.65;12.68;;;;;;;11.13;37.52;101893.45;1767598;78;21208;-77
2021/03/31 06:31:43;;;;;;;19.67;13.03;;;;;;;11.17;37.48;101895.76;1769344;78;21241;-80
2021/03/31 06:34:18;;;;;;;21.60;14.33;;;;;;;11.27;37.24;101892.31;1836758;76;21206;-80
2021/03/31 06:36:49;;;;;;;20.32;13.00;;;;;;;11.36;37.26;101887.52;1835573;76;21193;-78
2021/03/31 06:39:31;;;;;;;22.95;13.28;;;;;;;11.44;37.06;101889.05;1838195;76;21125;-77
2021/03/31 06:42:24;;;;;;;;;;;;;;;;;;;;;
2021/03/31 06:47:30;;;;;;;20.72;13.13;;;;;;;11.38;36.58;101887.73;1789375;78;21102;-78
2021/03/31 06:49:59;;;;;;;21.23;12.78;;;;;;;11.37;36.79;101883.84;1759402;78;21123;-77
2021/03/31 06:52:29;;;;;;;21.15;13.78;;;;;;;11.37;36.86;101874.46;1785545;77;21187;-77
2021/03/31 06:55:03;;;;;;;17.62;12.33;;;;;;;11.45;37.03;101882.72;1788195;77;21104;-78
2021/03/31 06:57:35;;;;;;;21.12;13.48;;;;;;;11.53;36.94;101877.53;1766762;77;21118;-79
2021/03/31 07:00:10;;;;;;;22.17;12.45;;;;;;;11.60;36.89;101869.34;1764779;79;21161;-77
2021/03/31 07:02:39;;;;;;;21.55;13.38;;;;;;;11.71;36.72;101872.44;1784913;77;21122;-78
2021/03/31 07:05:08;;;;;;;17.48;12.50;;;;;;;11.79;36.63;101871.80;1756563;78;21157;-78
2021/03/31 07:07:44;;;;;;;19.02;12.95;;;;;;;11.90;36.38;101874.45;1758081;79;21146;-79
2021/03/31 07:10:15;;;;;;;16.20;12.18;;;;;;;11.97;36.29;101862.19;1754132;79;21143;-78
2021/03/31 07:12:49;;;;;;;19.30;12.65;;;;;;;12.04;36.07;101855.31;1781125;78;21098;-78
2021/03/31 07:15:24;;;;;;;21.70;13.75;;;;;;;12.08;36.14;101860.78;1729188;80;21173;-78
2021/03/31 07:17:54;;;;;;;16.15;11.85;;;;;;;12.13;35.99;101849.63;1772355;78;21144;-78
2021/03/31 07:20:24;;;;;;;21.00;12.93;;;;;;;12.17;35.85;101846.55;1834728;76;21114;-79
2021/03/31 07:22:53;;;;;;;15.18;11.63;;;;;;;12.20;35.86;101845.41;1770296;79;21102;-77
2021/03/31 07:25:24;;;;;;;18.00;13.53;;;;;;;12.29;35.81;101850.47;1784035;77;22023;-78
2021/03/31 07:27:55;;;;;;;20.35;13.78;;;;;;;12.32;35.53;101834.08;1733977;79;21494;-78
2021/03/31 07:30:28;;;;;;;16.60;11.88;;;;;;;12.36;35.58;101835.02;1766749;79;21126;-80
2021/03/31 07:33:04;;;;;;;19.00;13.48;;;;;;;12.48;35.82;101830.87;1761622;78;21158;-81
2021/03/31 07:35:33;;;;;;;23.55;13.65;;;;;;;12.58;35.57;101818.30;1740945;79;21125;-78
2021/03/31 07:38:03;;;;;;;20.60;13.15;;;;;;;12.67;35.72;101820.16;1747367;79;21089;-78
2021/03/31 07:40:36;;;;;;;14.90;11.63;;;;;;;12.75;35.56;101813.59;1767513;78;21790;-79
2021/03/31 07:43:17;;;;;;;18.12;12.68;;;;;;;12.89;35.49;101807.81;1744479;79;21605;-79
2021/03/31 07:46:09;;;;;;;15.88;11.20;;;;;;;13.02;35.08;101811.58;1834650;76;21105;-80
2021/03/31 07:48:38;;;;;;;14.50;10.32;;;;;;;13.12;34.94;101808.38;1837724;76;21101;-79
2021/03/31 07:51:24;;;;;;;17.02;12.07;;;;;;;13.28;34.39;101811.05;1833323;76;21070;-78
2021/03/31 07:53:54;;;;;;;20.85;11.15;;;;;;;13.32;34.29;101805.23;1805210;77;21149;-80
2021/03/31 07:56:27;;;;;;;15.55;10.25;;;;;;;13.47;34.55;101800.75;1831587;75;21101;-78
2021/03/31 07:59:07;;;;;;;15.83;11.60;;;;;;;13.65;34.16;101802.55;1832657;76;21617;-80
2021/03/31 08:01:44;;;;;;;16.95;11.15;;;;;;;13.81;33.86;101810.53;1831978;76;21086;-80
2021/03/31 08:04:12;;;;;;;17.80;12.03;;;;;;;13.91;33.46;101800.58;1760758;79;21147;-84
2021/03/31 08:06:42;;;;;;;12.90;10.32;;;;;;;13.98;33.60;101803.01;1777306;78;21114;-82
2021/03/31 08:12:16;;;;;;;20.03;13.70;;;;;;;14.05;32.63;101796.55;1825949;75;27969;-78
2021/03/31 08:14:57;;;;;;;20.15;12.78;;;;;;;14.06;32.97;101798.24;1789930;78;21848;-77
2021/03/31 08:17:27;;;;;;;20.20;11.78;;;;;;;14.16;32.80;101798.54;1759601;78;21160;-79
2021/03/31 08:19:55;;;;;;;14.20;10.68;;;;;;;14.19;32.78;101790.67;1793616;77;21212;-78
2021/03/31 08:22:41;;;;;;;17.62;11.38;;;;;;;14.26;32.71;101794.48;1792247;78;22845;-80
2021/03/31 08:25:23;;;;;;;15.50;10.18;;;;;;;14.20;32.38;101786.97;1755732;80;21237;-80
2021/03/31 08:28:09;;;;;;;18.25;11.75;;;;;;;14.13;32.35;101779.99;1756503;80;21581;-78
2021/03/31 08:30:45;;;;;;;14.63;9.93;;;;;;;14.05;32.63;101775.84;1760379;80;21210;-79
2021/03/31 08:33:15;;;;;;;14.73;10.88;;;;;;;14.04;32.92;101778.20;1733615;80;21130;-77
2021/03/31 08:35:44;;;;;;;15.90;11.33;;;;;;;14.06;32.59;101776.19;1769498;79;21112;-80
2021/03/31 08:38:20;;;;;;;19.67;10.93;;;;;;;14.07;32.99;101768.95;1763520;79;21140;-78
2021/03/31 08:40:51;;;;;;;15.55;10.10;;;;;;;14.16;33.12;101768.89;1768682;79;21213;-77
2021/03/31 08:43:25;;;;;;;14.07;9.70;;;;;;;14.25;32.67;101756.88;1765258;79;21632;-78
2021/03/31 08:46:21;;;;;;;11.68;9.43;;;;;;;14.27;32.66;101761.12;1786331;79;21828;-80
2021/03/31 08:48:53;;;;;;;19.02;11.08;;;;;;;14.31;32.70;101754.44;1765978;79;21235;-78
2021/03/31 08:51:23;;;;;;;16.32;9.68;;;;;;;14.33;32.72;101752.94;1768580;79;21172;-79
2021/03/31 08:53:51;;;;;;;17.12;11.85;;;;;;;14.41;32.64;101748.98;1765163;79;21196;-80
2021/03/31 08:56:22;;;;;;;15.38;10.95;;;;;;;14.44;32.41;101750.89;1765637;79;21188;-78
2021/03/31 08:58:58;;;;;;;15.35;11.55;;;;;;;14.50;32.68;101748.11;1766041;79;21204;-76
2021/03/31 09:01:31;;;;;;;15.48;11.08;;;;;;;14.57;32.60;101740.24;1762972;79;21226;-79
2021/03/31 09:04:22;;;;;;;16.90;10.60;;;;;;;14.63;32.37;101741.84;1764731;79;21237;-77
2021/03/31 09:06:55;;;;;;;13.15;9.60;;;;;;;14.62;31.99;101740.12;1765565;79;21481;-78
2021/03/31 09:09:27;;;;;;;14.60;10.32;;;;;;;14.59;32.19;101736.41;1766782;79;21003;-78
2021/03/31 09:12:02;;;;;;;15.05;9.85;;;;;;;14.56;32.23;101736.70;1740904;79;21127;-77
2021/03/31 09:14:29;;;;;;;17.82;10.13;;;;;;;14.50;32.22;101727.89;1767422;79;21129;-78
2021/03/31 09:17:06;;;;;;;13.28;8.43;;;;;;;14.50;32.54;101729.23;1740040;79;21113;-79
2021/03/31 09:19:58;;;;;;;15.68;11.05;;;;;;;14.54;32.63;101729.28;1770447;79;21128;-79
2021/03/31 09:22:34;;;;;;;15.78;11.18;;;;;;;14.58;32.60;101725.28;1770792;79;21029;-79
2021/03/31 09:25:10;;;;;;;17.25;12.28;;;;;;;14.63;32.72;101717.58;1724540;79;21133;-77
2021/03/31 09:27:46;;;;;;;19.20;12.68;;;;;;;14.74;32.98;101716.98;1741109;80;21141;-79
2021/03/31 09:30:17;;;;;;;19.52;12.68;;;;;;;14.84;32.73;101713.20;1764349;79;21233;-79
2021/03/31 09:32:59;;;;;;;17.32;13.03;;;;;;;14.93;32.71;101712.77;1788411;79;21189;-78
2021/03/31 09:35:24;;;;;;;16.65;12.65;;;;;;;15.02;32.52;101711.83;1758194;80;21181;-77
2021/03/31 09:37:58;;;;;;;19.00;12.33;;;;;;;15.02;32.32;101714.53;1735340;80;21573;-79
2021/03/31 09:40:47;;;;;;;18.90;12.78;;;;;;;14.99;32.27;101714.86;1767613;79;21205;-79
2021/03/31 09:43:35;;;;;;;16.57;11.90;;;;;;;14.95;32.74;101704.03;1770849;79;21208;-78
2021/03/31 09:46:20;;;;;;;18.45;12.88;;;;;;;14.95;32.61;101702.69;1789772;78;21208;-80
2021/03/31 09:49:18;;;;;;;34.95;14.13;;;;;;;14.94;32.87;101702.31;1735027;80;21208;-81
2021/03/31 09:51:56;;;;;;;20.45;13.05;;;;;;;15.02;32.88;101701.03;1657452;82;21389;-79
2021/03/31 09:54:33;;;;;;;18.45;13.25;;;;;;;15.14;33.05;101700.30;1721246;81;21251;-78
2021/03/31 09:57:14;;;;;;;16.42;12.13;;;;;;;15.22;32.86;101689.56;1718159;81;21117;-78
2021/03/31 09:59:53;;;;;;;17.23;13.32;;;;;;;15.21;32.65;101695.94;1702949;81;21172;-77
2021/03/31 10:02:33;;;;;;;19.05;13.53;;;;;;;15.16;32.76;101686.97;1723292;81;22083;-81
2021/03/31 10:05:14;;;;;;;15.45;11.43;;;;;;;15.19;32.87;101681.27;1713192;81;21129;-77
2021/03/31 10:07:44;;;;;;;18.27;13.35;;;;;;;15.29;32.90;101685.71;1679103;81;21149;-80
2021/03/31 10:10:16;;;;;;;16.25;12.90;;;;;;;15.35;32.68;101676.96;1699731;81;21120;-79
2021/03/31 10:13:06;;;;;;;17.00;11.73;;;;;;;15.46;32.54;101667.26;1823004;77;22720;-78
2021/03/31 10:15:38;;;;;;;16.05;11.20;;;;;;;15.50;32.31;101671.33;1758928;77;21193;-78
2021/03/31 10:18:13;;;;;;;19.32;11.12;;;;;;;15.54;31.88;101671.86;1827643;77;21192;-80
2021/03/31 10:20:58;;;;;;;21.20;12.85;;;;;;;15.58;31.94;101664.63;1806320;77;21184;-80
2021/03/31 10:23:44;;;;;;;22.10;11.05;;;;;;;15.68;32.15;101657.27;1806981;78;21767;-79
2021/03/31 10:26:29;;;;;;;23.32;13.38;;;;;;;15.78;31.16;101655.79;1776050;78;21553;-79
2021/03/31 10:29:22;;;;;;;15.20;9.63;;;;;;;15.83;30.95;101651.24;1807123;77;21603;-81
2021/03/31 10:32:00;;;;;;;13.60;9.60;;;;;;;15.93;30.55;101656.00;1806901;78;21143;-80
2021/03/31 10:34:43;;;;;;;17.60;11.25;;;;;;;15.96;30.28;101650.28;1778733;78;21136;-80
2021/03/31 10:37:21;;;;;;;13.90;10.63;;;;;;;15.95;30.31;101645.38;1808574;78;21105;-77
2021/03/31 10:54:09;;;;;;;14.50;12.15;;;;;;;15.75;35.79;101655.26;1811660;78;21136;-78
2021/03/31 10:56:49;;;;;;;19.80;11.93;;;;;;;15.59;36.21;101651.46;1793257;78;21085;-78
2021/03/31 10:59:13;;;;;;;15.83;12.10;;;;;;;15.42;36.76;101658.62;1834852;77;21003;-78
2021/03/31 11:01:43;;;;;;;19.27;11.35;;;;;;;15.30;37.16;101659.05;1806121;78;21149;-79
2021/03/31 11:04:16;;;;;;;16.62;11.53;;;;;;;15.18;37.29;101657.98;1813334;78;21571;-78
2021/03/31 11:06:48;;;;;;;16.35;11.68;;;;;;;15.12;37.38;101657.25;1813597;78;21657;-81
2021/03/31 11:09:16;;;;;;;16.90;11.20;;;;;;;15.12;37.33;101661.80;1812064;78;21085;-80
2021/03/31 11:11:48;;;;;;;17.35;13.28;;;;;;;15.09;37.46;101657.59;1760135;78;21537;-80
2021/03/31 11:14:19;;;;;;;13.30;10.50;;;;;;;15.09;37.81;101654.89;1813709;78;21026;-80
2021/03/31 11:16:56;;;;;;;14.85;10.98;;;;;;;15.02;37.64;101655.67;1785156;78;21570;-81
2021/03/31 11:27:32;;;;;;;13.85;10.08;;;;;;;14.66;38.51;101648.98;1812185;78;21136;-80
2021/03/31 11:30:10;;;;;;;15.35;10.70;;;;;;;14.59;38.51;101643.38;1806857;78;21084;-78
2021/03/31 11:32:48;;;;;;;17.07;10.35;;;;;;;14.60;38.42;101640.18;1784828;78;21227;-77
2021/03/31 11:35:38;;;;;;;19.50;10.78;;;;;;;14.60;38.41;101641.02;1786322;78;21105;-79
2021/03/31 11:38:13;;;;;;;12.55;10.20;;;;;;;14.62;38.09;101637.66;1772027;78;21140;-79
2021/03/31 11:40:48;;;;;;;20.82;10.70;;;;;;;14.64;38.05;101632.97;1811741;78;21679;-80
2021/03/31 11:43:28;;;;;;;15.40;10.00;;;;;;;14.56;38.31;101628.01;1814249;78;21134;-81
2021/03/31 11:46:07;;;;;;;14.55;9.30;;;;;;;14.54;38.27;101628.17;1807181;78;21090;-77
2021/03/31 11:48:43;;;;;;;14.10;10.05;;;;;;;14.55;38.23;101628.52;1805024;78;21144;-78
2021/03/31 11:51:24;;;;;;;14.05;10.53;;;;;;;14.54;38.16;101624.13;1810299;78;21089;-80
2021/03/31 11:54:17;;;;;;;18.60;9.53;;;;;;;14.55;38.21;101623.63;1810941;78;21153;-76
2021/03/31 11:56:52;;;;;;;13.38;9.78;;;;;;;14.56;38.22;101613.18;1784280;78;21085;-77
2021/03/31 11:59:26;;;;;;;11.15;9.25;;;;;;;14.58;38.13;101613.38;1837822;76;21065;-77
2021/03/31 12:02:00;;;;;;;15.68;9.95;;;;;;;14.61;37.97;101611.70;1782508;77;21165;-79
2021/03/31 12:04:37;;;;;;;15.50;10.35;;;;;;;14.61;37.99;101606.81;1829308;77;21192;-79
2021/03/31 12:07:23;;;;;;;;;;;;;;;14.57;37.90;101602.23;1814215;77;21117;-80
2021/03/31 12:09:58;;;;;;;14.18;9.63;;;;;;;14.56;37.92;101600.54;1778169;78;20235;-76
2021/03/31 12:12:33;;;;;;;17.17;9.83;;;;;;;14.56;37.98;101600.54;1786329;78;21172;-80
2021/03/31 12:15:22;;;;;;;15.05;11.12;;;;;;;14.55;37.73;101596.66;1798041;78;21201;-80